createdAt,value
2023-12-23T00:00:05.185Z,99925.63
2023-12-23T00:02:34.360Z,99923.97
2023-12-23T00:05:00.948Z,99925.19
2023-12-23T00:07:27.561Z,99922.66
2023-12-23T00:09:54.262Z,99930.69
2023-12-23T00:12:21.281Z,99929.03
2023-12-23T00:14:47.887Z,99934.53
2023-12-23T00:17:14.580Z,99942.13
2023-12-23T00:19:41.386Z,99942.66
2023-12-23T00:22:07.979Z,99952.28
2023-12-23T00:24:34.584Z,99959.31
2023-12-23T00:27:01.215Z,99956.59
2023-12-23T00:29:29.062Z,99953.50
2023-12-23T00:31:55.761Z,99947.78
2023-12-23T00:34:22.400Z,99962.03
2023-12-23T00:36:48.987Z,99939.25
2023-12-23T00:39:16.247Z,99936.84
2023-12-23T00:41:43.239Z,99941.59
2023-12-23T00:44:10.107Z,99948.00
2023-12-23T00:46:36.774Z,99944.59
2023-12-23T00:49:04.685Z,99950.06
2023-12-23T00:51:31.994Z,99945.47
2023-12-23T00:53:58.709Z,99931.13
2023-12-23T00:56:25.512Z,99937.28
2023-12-23T00:58:52.263Z,99941.56
2023-12-23T01:01:18.813Z,99937.72
2023-12-23T01:03:45.551Z,99946.03
2023-12-23T01:06:12.216Z,99955.34
2023-12-23T01:08:38.889Z,99961.91
2023-12-23T01:11:05.620Z,99951.34
2023-12-23T01:13:32.783Z,99954.28
2023-12-23T01:15:59.337Z,99939.78
2023-12-23T01:18:26.037Z,99945.72
2023-12-23T01:20:52.650Z,99957.22
2023-12-23T01:23:19.372Z,99954.28
2023-12-23T01:25:46.388Z,99955.47
2023-12-23T01:28:13.922Z,99942.41
2023-12-23T01:30:40.752Z,99943.88
2023-12-23T01:33:09.071Z,99938.88
2023-12-23T01:35:37.736Z,99935.16
2023-12-23T01:38:06.651Z,99937.00
2023-12-23T01:40:35.789Z,99949.31
2023-12-23T01:43:02.483Z,99948.22
2023-12-23T01:45:29.020Z,99949.97
2023-12-23T01:47:57.612Z,99951.84
2023-12-23T01:50:27.114Z,99951.38
2023-12-23T01:52:56.420Z,99949.06
2023-12-23T01:55:27.719Z,99939.22
2023-12-23T01:57:55.653Z,99953.47
2023-12-23T02:00:23.275Z,99946.13
2023-12-23T02:02:50.447Z,99948.59
2023-12-23T02:05:17.530Z,99943.84
2023-12-23T02:07:46.717Z,99951.16
2023-12-23T02:10:14.727Z,99948.97
2023-12-23T02:13:25.000Z,99955.44
2023-12-23T02:15:53.028Z,99948.16
2023-12-23T02:18:24.741Z,99943.84
2023-12-23T02:20:53.366Z,99935.25
2023-12-23T02:23:20.770Z,99927.81
2023-12-23T02:25:55.000Z,99923.66
2023-12-23T02:28:23.589Z,99914.50
2023-12-23T02:30:52.172Z,99910.50
2023-12-23T02:33:18.974Z,99905.63
2023-12-23T02:35:46.546Z,99902.56
2023-12-23T02:38:14.051Z,99887.13
2023-12-23T02:40:40.790Z,99894.31
2023-12-23T02:43:07.423Z,99893.22
2023-12-23T02:45:33.964Z,99890.84
2023-12-23T02:48:00.615Z,99886.47
2023-12-23T02:50:27.235Z,99892.34
2023-12-23T02:52:54.135Z,99884.31
2023-12-23T02:55:20.891Z,99871.66
2023-12-23T02:57:47.456Z,99854.66
2023-12-23T03:00:14.341Z,99854.03
2023-12-23T03:02:40.909Z,99842.31
2023-12-23T03:05:08.286Z,99843.03
2023-12-23T03:07:34.949Z,99835.91
2023-12-23T03:10:02.098Z,99846.44
2023-12-23T03:12:29.212Z,99833.25
2023-12-23T03:14:55.819Z,99829.31
2023-12-23T03:17:22.490Z,99832.50
2023-12-23T03:19:49.140Z,99823.72
2023-12-23T03:22:15.707Z,99820.78
2023-12-23T03:24:42.286Z,99821.47
2023-12-23T03:27:09.197Z,99820.78
2023-12-23T03:29:35.731Z,99825.97
2023-12-23T03:32:02.386Z,99800.31
2023-12-23T03:34:29.528Z,99793.69
2023-12-23T03:36:56.083Z,99789.75
2023-12-23T03:39:22.658Z,99783.44
2023-12-23T03:41:49.209Z,99772.34
2023-12-23T03:44:15.750Z,99764.41
2023-12-23T03:46:42.449Z,99754.56
2023-12-23T03:49:09.063Z,99761.28
2023-12-23T03:51:35.669Z,99762.16
2023-12-23T03:54:02.284Z,99745.69
2023-12-23T03:56:28.855Z,99750.72
2023-12-23T03:58:55.661Z,99737.53
2023-12-23T04:01:22.300Z,99739.06
2023-12-23T04:03:49.080Z,99728.75
2023-12-23T04:06:16.038Z,99727.97
2023-12-23T04:08:43.531Z,99730.47
2023-12-23T04:11:10.228Z,99708.81
2023-12-23T04:13:39.681Z,99695.97
2023-12-23T04:16:06.621Z,99699.72
2023-12-23T04:18:33.409Z,99699.28
2023-12-23T04:21:00.162Z,99690.97
2023-12-23T04:23:27.058Z,99681.78
2023-12-23T04:25:53.768Z,99677.50
2023-12-23T04:28:25.535Z,99661.75
2023-12-23T04:30:56.073Z,99666.75
2023-12-23T04:33:23.605Z,99660.22
2023-12-23T04:35:50.530Z,99653.38
2023-12-23T04:38:17.307Z,99653.50
2023-12-23T04:40:44.040Z,99650.75
2023-12-23T04:43:10.862Z,99661.19
2023-12-23T04:45:38.119Z,99648.94
2023-12-23T04:48:05.110Z,99661.94
2023-12-23T04:50:31.654Z,99652.56
2023-12-23T04:52:58.371Z,99654.13
2023-12-23T04:55:27.319Z,99654.19
2023-12-23T04:57:54.064Z,99645.19
2023-12-23T05:00:20.742Z,99634.03
2023-12-23T05:02:47.731Z,99627.88
2023-12-23T05:05:14.810Z,99620.13
2023-12-23T05:07:41.511Z,99626.31
2023-12-23T05:10:08.426Z,99623.00
2023-12-23T05:12:35.001Z,99623.59
2023-12-23T05:15:01.639Z,99629.34
2023-12-23T05:17:28.290Z,99623.72
2023-12-23T05:19:56.385Z,99624.09
2023-12-23T05:22:23.326Z,99623.97
2023-12-23T05:24:49.975Z,99616.00
2023-12-23T05:27:18.584Z,99614.34
2023-12-23T05:29:46.504Z,99605.56
2023-12-23T05:32:13.110Z,99620.06
2023-12-23T05:34:39.783Z,99609.88
2023-12-23T05:37:06.335Z,99608.81
2023-12-23T05:39:32.949Z,99621.91
2023-12-23T05:41:59.837Z,99616.06
2023-12-23T05:44:26.913Z,99612.09
2023-12-23T05:46:53.564Z,99618.78
2023-12-23T05:49:23.511Z,99619.78
2023-12-23T05:51:53.874Z,99616.88
2023-12-23T05:54:20.428Z,99626.22
2023-12-23T05:56:46.965Z,99612.66
2023-12-23T05:59:13.538Z,99613.63
2023-12-23T06:01:40.169Z,99612.22
2023-12-23T06:04:06.739Z,99619.50
2023-12-23T06:06:33.312Z,99619.13
2023-12-23T06:08:59.932Z,99618.41
2023-12-23T06:11:26.601Z,99621.31
2023-12-23T06:13:53.239Z,99617.00
2023-12-23T06:16:19.828Z,99622.53
2023-12-23T06:18:46.522Z,99620.38
2023-12-23T06:21:13.279Z,99605.97
2023-12-23T06:23:40.156Z,99614.00
2023-12-23T06:26:06.743Z,99601.16
2023-12-23T06:28:33.366Z,99616.06
2023-12-23T06:30:59.989Z,99599.94
2023-12-23T06:33:26.865Z,99609.22
2023-12-23T06:35:53.451Z,99609.91
2023-12-23T06:38:20.479Z,99597.69
2023-12-23T06:40:47.167Z,99591.03
2023-12-23T06:43:44.070Z,99585.41
2023-12-23T06:46:01.039Z,99589.84
2023-12-23T06:48:31.307Z,99579.25
2023-12-23T06:50:59.832Z,99582.75
2023-12-23T06:53:26.428Z,99582.41
2023-12-23T06:55:52.963Z,99583.63
2023-12-23T06:58:19.484Z,99587.69
2023-12-23T07:00:46.375Z,99584.56
2023-12-23T07:03:13.022Z,99572.69
2023-12-23T07:05:39.754Z,99593.91
2023-12-23T07:08:07.142Z,99574.34
2023-12-23T07:10:34.618Z,99581.56
2023-12-23T07:13:01.160Z,99588.81
2023-12-23T07:15:27.832Z,99579.03
2023-12-23T07:17:54.440Z,99586.50
2023-12-23T07:20:21.716Z,99597.75
2023-12-23T07:22:49.612Z,99599.25
2023-12-23T07:25:17.336Z,99588.41
2023-12-23T07:27:43.987Z,99592.28
2023-12-23T07:30:11.467Z,99594.41
2023-12-23T07:32:38.144Z,99584.53
2023-12-23T07:35:05.356Z,99584.69
2023-12-23T07:37:31.927Z,99603.91
2023-12-23T07:39:58.608Z,99601.03
2023-12-23T07:42:25.323Z,99599.22
2023-12-23T07:44:51.941Z,99605.00
2023-12-23T07:47:18.717Z,99605.56
2023-12-23T07:49:45.404Z,99605.34
2023-12-23T07:52:12.208Z,99603.66
2023-12-23T07:54:41.173Z,99600.50
2023-12-23T07:57:07.712Z,99610.06
2023-12-23T07:59:34.461Z,99609.22
2023-12-23T08:02:01.323Z,99606.34
2023-12-23T08:04:27.915Z,99618.91
2023-12-23T08:06:54.514Z,99613.63
2023-12-23T08:09:21.576Z,99622.78
2023-12-23T08:11:48.093Z,99625.78
2023-12-23T08:14:15.030Z,99609.94
2023-12-23T08:16:41.626Z,99631.09
2023-12-23T08:19:08.243Z,99628.06
2023-12-23T08:21:34.854Z,99631.31
2023-12-23T08:24:04.827Z,99638.19
2023-12-23T08:26:31.559Z,99627.69
2023-12-23T08:28:58.645Z,99645.84
2023-12-23T08:31:25.630Z,99628.56
2023-12-23T08:33:52.234Z,99640.75
2023-12-23T08:36:18.869Z,99636.00
2023-12-23T08:38:45.633Z,99637.47
2023-12-23T08:41:12.209Z,99650.94
2023-12-23T08:43:38.933Z,99652.53
2023-12-23T08:46:05.629Z,99649.59
2023-12-23T08:48:32.277Z,99645.38
2023-12-23T08:50:58.890Z,99655.25
2023-12-23T08:53:25.646Z,99646.13
2023-12-23T08:55:52.556Z,99641.53
2023-12-23T08:58:19.378Z,99647.31
2023-12-23T09:00:45.912Z,99642.63
2023-12-23T09:03:12.620Z,99655.41
2023-12-23T09:05:39.521Z,99654.09
2023-12-23T09:08:06.444Z,99654.31
2023-12-23T09:10:33.062Z,99662.13
2023-12-23T09:13:00.167Z,99652.75
2023-12-23T09:15:27.008Z,99662.00
2023-12-23T09:17:54.147Z,99659.25
2023-12-23T09:20:20.966Z,99669.47
2023-12-23T09:22:49.840Z,99676.78
2023-12-23T09:25:16.643Z,99665.84
2023-12-23T09:27:43.202Z,99672.34
2023-12-23T09:30:10.289Z,99662.59
2023-12-23T09:32:36.903Z,99676.44
2023-12-23T09:35:06.005Z,99671.84
2023-12-23T09:37:33.324Z,99674.63
2023-12-23T09:40:02.194Z,99688.47
2023-12-23T09:42:29.173Z,99686.28
2023-12-23T09:44:55.843Z,99688.47
2023-12-23T09:47:22.864Z,99689.41
2023-12-23T09:49:49.574Z,99693.13
2023-12-23T09:52:16.311Z,99685.69
2023-12-23T09:54:50.897Z,99688.78
2023-12-23T09:57:19.502Z,99694.47
2023-12-23T09:59:49.769Z,99686.66
2023-12-23T10:02:16.442Z,99697.00
2023-12-23T10:04:43.084Z,99698.56
2023-12-23T10:07:09.717Z,99697.97
2023-12-23T10:09:36.242Z,99707.56
2023-12-23T10:12:03.454Z,99705.03
2023-12-23T10:14:30.617Z,99703.72
2023-12-23T10:16:57.268Z,99695.53
2023-12-23T10:19:24.383Z,99694.34
2023-12-23T10:21:51.695Z,99704.69
2023-12-23T10:24:18.198Z,99714.66
2023-12-23T10:26:46.801Z,99710.59
2023-12-23T10:29:17.296Z,99715.13
2023-12-23T10:31:48.635Z,99708.41
2023-12-23T10:34:18.633Z,99706.38
2023-12-23T10:36:45.566Z,99703.34
2023-12-23T10:39:22.760Z,99698.41
2023-12-23T10:41:58.480Z,99700.34
2023-12-23T10:44:29.570Z,99695.91
2023-12-23T10:46:57.255Z,99712.50
2023-12-23T10:49:27.959Z,99708.16
2023-12-23T10:51:56.970Z,99702.03
2023-12-23T10:54:26.034Z,99704.44
2023-12-23T10:56:54.125Z,99697.34
2023-12-23T10:59:20.935Z,99713.94
2023-12-23T11:01:48.055Z,99715.88
2023-12-23T11:04:14.725Z,99711.31
2023-12-23T11:06:44.898Z,99713.72
2023-12-23T11:09:13.225Z,99704.09
2023-12-23T11:11:41.750Z,99703.59
2023-12-23T11:14:09.245Z,99708.06
2023-12-23T11:16:39.427Z,99723.34
2023-12-23T11:19:06.691Z,99719.72
2023-12-23T11:21:36.107Z,99717.56
2023-12-23T11:24:03.592Z,99720.06
2023-12-23T11:26:36.343Z,99717.78
2023-12-23T11:29:12.669Z,99713.09
2023-12-23T11:31:39.380Z,99732.94
2023-12-23T11:34:14.594Z,99738.22
2023-12-23T11:36:46.711Z,99728.97
2023-12-23T11:39:14.849Z,99723.09
2023-12-23T11:41:43.052Z,99721.63
2023-12-23T11:44:14.603Z,99719.13
2023-12-23T11:46:44.234Z,99725.97
2023-12-23T11:49:11.632Z,99727.41
2023-12-23T11:51:40.216Z,99725.50
2023-12-23T11:54:08.042Z,99724.28
2023-12-23T11:56:34.745Z,99729.34
2023-12-23T11:59:02.683Z,99742.81
2023-12-23T12:01:32.598Z,99735.81
2023-12-23T12:03:59.265Z,99737.88
2023-12-23T12:06:26.268Z,99725.72
2023-12-23T12:08:55.501Z,99735.34
2023-12-23T12:11:24.076Z,99736.06
2023-12-23T12:13:50.999Z,99746.03
2023-12-23T12:16:18.344Z,99741.72
2023-12-23T12:18:45.095Z,99744.22
2023-12-23T12:21:11.847Z,99744.72
2023-12-23T12:23:38.669Z,99730.78
2023-12-23T12:26:05.343Z,99733.06
2023-12-23T12:28:32.212Z,99729.81
2023-12-23T12:31:12.925Z,99731.38
2023-12-23T12:33:43.614Z,99741.56
2023-12-23T12:36:12.769Z,99726.91
2023-12-23T12:38:39.536Z,99740.63
2023-12-23T12:41:07.458Z,99724.91
2023-12-23T12:43:35.614Z,99729.84
2023-12-23T12:46:02.291Z,99739.78
2023-12-23T12:48:29.009Z,99750.03
2023-12-23T12:50:56.372Z,99749.41
2023-12-23T12:53:23.205Z,99760.47
2023-12-23T12:55:49.889Z,99747.38
2023-12-23T12:58:17.521Z,99744.50
2023-12-23T13:00:44.203Z,99745.22
2023-12-23T13:03:11.125Z,99760.84
2023-12-23T13:05:37.806Z,99757.22
2023-12-23T13:08:04.929Z,99753.63
2023-12-23T13:10:31.912Z,99769.03
2023-12-23T13:12:58.497Z,99762.91
2023-12-23T13:15:25.117Z,99771.66
2023-12-23T13:17:52.864Z,99780.47
2023-12-23T13:20:19.626Z,99793.31
2023-12-23T13:22:48.570Z,99791.91
2023-12-23T13:25:15.941Z,99783.97
2023-12-23T13:27:42.622Z,99790.31
2023-12-23T13:30:10.134Z,99769.41
2023-12-23T13:32:36.954Z,99793.19
2023-12-23T13:35:04.817Z,99782.34
2023-12-23T13:37:32.074Z,99790.44
2023-12-23T13:39:58.710Z,99787.22
2023-12-23T13:42:25.775Z,99787.53
2023-12-23T13:44:52.677Z,99786.94
2023-12-23T13:47:19.442Z,99783.69
2023-12-23T13:49:46.237Z,99790.44
2023-12-23T13:52:16.190Z,99809.19
2023-12-23T13:54:43.377Z,99813.66
2023-12-23T13:57:09.967Z,99818.59
2023-12-23T13:59:36.632Z,99834.34
2023-12-23T14:02:05.281Z,99831.00
2023-12-23T14:04:31.887Z,99831.50
2023-12-23T14:06:58.446Z,99814.16
2023-12-23T14:09:25.058Z,99815.22
2023-12-23T14:11:51.875Z,99820.41
2023-12-23T14:14:18.505Z,99826.66
2023-12-23T14:16:45.219Z,99831.59
2023-12-23T14:19:11.998Z,99813.78
2023-12-23T14:21:38.597Z,99820.03
2023-12-23T14:24:05.934Z,99822.34
2023-12-23T14:26:32.599Z,99849.75
2023-12-23T14:28:59.308Z,99841.34
2023-12-23T14:31:26.184Z,99845.09
2023-12-23T14:33:52.992Z,99850.88
2023-12-23T14:36:20.028Z,99842.31
2023-12-23T14:38:47.040Z,99836.91
2023-12-23T14:41:13.986Z,99836.41
2023-12-23T14:43:40.615Z,99841.56
2023-12-23T14:46:07.169Z,99848.59
2023-12-23T14:48:34.222Z,99845.81
2023-12-23T14:51:00.979Z,99849.53
2023-12-23T14:53:29.062Z,99859.28
2023-12-23T14:55:55.712Z,99873.63
2023-12-23T14:58:22.303Z,99866.63
2023-12-23T15:00:48.989Z,99878.06
2023-12-23T15:03:16.044Z,99871.22
2023-12-23T15:05:42.926Z,99866.25
2023-12-23T15:08:09.712Z,99878.59
2023-12-23T15:10:36.378Z,99868.66
2023-12-23T15:13:05.398Z,99878.56
2023-12-23T15:15:33.385Z,99883.84
2023-12-23T15:18:00.064Z,99871.78
2023-12-23T15:20:26.982Z,99881.31
2023-12-23T15:22:53.952Z,99886.13
2023-12-23T15:25:20.703Z,99891.66
2023-12-23T15:27:47.349Z,99888.53
2023-12-23T15:30:14.513Z,99885.25
2023-12-23T15:32:41.643Z,99893.94
2023-12-23T15:35:08.810Z,99892.53
2023-12-23T15:37:35.510Z,99892.50
2023-12-23T15:40:02.064Z,99895.94
2023-12-23T15:42:28.780Z,99883.88
2023-12-23T15:44:55.512Z,99881.44
2023-12-23T15:47:22.200Z,99892.03
2023-12-23T15:49:49.042Z,99897.94
2023-12-23T15:52:15.711Z,99902.63
2023-12-23T15:54:42.378Z,99904.69
2023-12-23T15:57:08.990Z,99918.34
2023-12-23T15:59:35.583Z,99916.94
2023-12-23T16:02:04.237Z,99925.25
2023-12-23T16:04:31.351Z,99918.25
2023-12-23T16:06:57.968Z,99929.56
2023-12-23T16:09:24.623Z,99933.66
2023-12-23T16:11:51.277Z,99931.38
2023-12-23T16:14:18.055Z,99932.56
2023-12-23T16:16:44.656Z,99942.03
2023-12-23T16:19:11.325Z,99939.34
2023-12-23T16:21:37.983Z,99945.09
2023-12-23T16:24:04.786Z,99945.22
2023-12-23T16:26:31.386Z,99948.19
2023-12-23T16:28:58.009Z,99956.38
2023-12-23T16:31:25.182Z,99956.34
2023-12-23T16:33:53.787Z,99950.97
2023-12-23T16:36:21.488Z,99956.97
2023-12-23T16:38:48.345Z,99953.31
2023-12-23T16:41:15.300Z,99957.88
2023-12-23T16:43:41.887Z,99949.94
2023-12-23T16:46:10.005Z,99951.13
2023-12-23T16:48:36.987Z,99949.41
2023-12-23T16:51:04.685Z,99957.72
2023-12-23T16:53:31.424Z,99954.75
2023-12-23T16:55:58.760Z,99954.47
2023-12-23T16:58:26.052Z,99945.72
2023-12-23T17:00:52.961Z,99939.50
2023-12-23T17:03:19.589Z,99942.16
2023-12-23T17:05:46.464Z,99941.56
2023-12-23T17:08:13.214Z,99948.09
2023-12-23T17:10:39.867Z,99945.13
2023-12-23T17:13:07.206Z,99950.94
2023-12-23T17:15:33.817Z,99948.03
2023-12-23T17:18:00.887Z,99950.19
2023-12-23T17:20:27.659Z,99940.16
2023-12-23T17:22:55.636Z,99943.59
2023-12-23T17:25:22.673Z,99944.41
2023-12-23T17:27:49.271Z,99949.88
2023-12-23T17:30:16.224Z,99941.75
2023-12-23T17:32:43.423Z,99957.16
2023-12-23T17:35:10.841Z,99961.38
2023-12-23T17:37:37.527Z,99950.31
2023-12-23T17:40:04.944Z,99956.19
2023-12-23T17:42:31.510Z,99960.66
2023-12-23T17:44:59.460Z,99960.13
2023-12-23T17:47:26.264Z,99948.75
2023-12-23T17:49:53.074Z,99965.06
2023-12-23T17:52:20.686Z,99950.66
2023-12-23T17:54:48.346Z,99972.69
2023-12-23T17:57:17.952Z,99958.53
2023-12-23T17:59:44.716Z,99955.75
2023-12-23T18:02:11.436Z,99958.63
2023-12-23T18:04:38.115Z,99959.25
2023-12-23T18:07:04.874Z,99957.97
2023-12-23T18:09:32.223Z,99966.16
2023-12-23T18:11:59.121Z,99961.09
2023-12-23T18:14:28.268Z,99966.78
2023-12-23T18:16:55.953Z,99970.94
2023-12-23T18:19:22.821Z,99941.19
2023-12-23T18:21:49.606Z,99960.81
2023-12-23T18:24:16.276Z,99956.16
2023-12-23T18:26:43.521Z,99955.31
2023-12-23T18:29:10.306Z,99950.50
2023-12-23T18:31:36.895Z,99941.13
2023-12-23T18:35:19.828Z,99947.19
2023-12-23T23:10:19.033Z,99879.06
2023-12-23T23:12:45.812Z,99887.63
2023-12-23T23:15:12.631Z,99895.56
2023-12-23T23:17:39.344Z,99889.66
2023-12-23T23:20:06.536Z,99881.81
2023-12-23T23:22:33.380Z,99890.75
2023-12-23T23:25:00.013Z,99898.59
2023-12-23T23:27:26.578Z,99894.72
2023-12-23T23:29:53.563Z,99892.13
2023-12-23T23:32:20.940Z,99896.28
2023-12-23T23:34:50.467Z,99874.78
2023-12-23T23:37:19.476Z,99860.47
2023-12-23T23:39:45.990Z,99873.47
2023-12-23T23:42:12.846Z,99865.75
2023-12-23T23:44:39.603Z,99865.03
2023-12-23T23:47:06.413Z,99862.97
2023-12-23T23:49:32.974Z,99867.09
2023-12-23T23:51:59.592Z,99858.66
2023-12-23T23:54:26.130Z,99854.69
2023-12-23T23:56:52.742Z,99869.56
2023-12-23T23:59:19.321Z,99876.47
